Tiempo atmosférico en la estación meteorológica de La Aldea De San Nicolas, Las Palmas (13 m.)



Fecha
DESCASC
Temp. máxima en grados centígrados (hora)
DESCASC
Temp. mínima en grados centígrados (hora)
DESCASC
Temp. media en grados centígrados
DESCASC
Racha de viento máxima en m/sg (hora)
DESCASC
Velocidad máxima media en intervalos de 10 minutos(hora)
DESCASC
Precipitaciones diarias en mm
DESCASC
Precipitaciones de 00:00 a 06:00 en mm
DESCASC
Precipitaciones de 06:00 a 12:00 en mm
DESCASC
Precipitaciones de 12:00 a 18:00 en mm
DESCASC
Precipitaciones de 18:00 a 24:00 en mm
DESCASC

Gráficas

Temp. máximas Temp. mínimas Temp. medias Precipitaciones Rachas de viento máximas Velocidades máximas media en intervalos de 10 minutos

Datos horarios

Fecha y hora oficial Temperatura (ºC) Velocidad del viento (km/h) Dirección del viento Racha (km/h) Dirección de racha Precipitación (mm) Presión (hPa) Tendencia (hPa) Humedad (%)
2019-06-24 23:00:00 23.3 6 Noroeste 15 Oeste 0 1015.9 1.3 73
2019-06-24 22:00:00 23.6 11 Oeste 20 Oeste 0 1015.6 1.5 72
2019-06-24 21:00:00 24.2 14 Oeste 30 Oeste 0 1015.2 1.1 67
2019-06-24 20:00:00 25.2 23 Oeste 34 Sudoeste 0 1014.6 0.4 65
2019-06-24 19:00:00 27.1 22 Oeste 38 Oeste 0 1014.1 -0.1 43
2019-06-24 18:00:00 27.2 24 Oeste 37 Oeste 0 1014.1 -0.1 57
2019-06-24 17:00:00 27.6 22 Oeste 37 Oeste 0 1014.2 -0.2 59
2019-06-24 16:00:00 28.6 19 Oeste 35 Oeste 0 1014.2 -0.4 55
2019-06-24 15:00:00 28.4 22 Oeste 32 Oeste 0 1014.2 -0.6 56
2019-06-24 14:00:00 28.5 14 Oeste 24 Oeste 0 1014.4 -0.6 54
2019-06-24 13:00:00 27.9 7 Noroeste 28 Noroeste 0 1014.6 -0.4 55
2019-06-24 12:00:00 27 9 Noroeste 19 Oeste 0 1014.8 0 58
2019-06-24 11:00:00 24.7 9 Noroeste 18 Oeste 0 1015 0.5 69
2019-06-24 10:00:00 23.6 9 Noroeste 20 Oeste 0 1015 0.7 75
2019-06-24 09:00:00 22.7 4 Noroeste 9 Noroeste 0 1014.8 0.8 80
2019-06-24 08:00:00 19.5 5 Sudeste 9 Sudeste 0 1014.5 0.3 80
2019-06-24 07:00:00 18.8 5 Este 10 Este 0 1014.3 0 79
2019-06-24 06:00:00 19.2 5 Este 8 Este 0 1014 -0.7 80
2019-06-24 05:00:00 19.4 6 Sudeste 8 Sudeste 0 1014.2 -1 79
2019-06-24 04:00:00 19.9 5 Este 8 Este 0 1014.3 -1.6 76
2019-06-24 03:00:00 20.7 3 Nordeste 9 Sur 0 1014.7 -1.3 76
2019-06-24 02:00:00 20.8 6 Este 8 Este 0 1015.2 -0.5 77
2019-06-24 01:00:00 21.3 5 Este 6 Este 0 1015.9 0.7 75
2019-06-24 00:00:00 21.9 2 Nordeste 8 Oeste 0 1016 1.5 77
2019-06-23 23:00:00 22.5 6 Oeste 10 Noroeste 0 1015.7 1.5 75
2019-06-23 22:00:00 22.9 5 Noroeste 20 Noroeste 0 1015.2 1.1 75
2019-06-23 21:00:00 23.4 10 Noroeste 21 Noroeste 0 1014.5 0.2 71
2019-06-23 20:00:00 24.7 12 Noroeste 24 Noroeste 0 1014.2 -0.5 67
2019-06-23 19:00:00 24.9 13 Noroeste 22 Noroeste 0 1014.1 -0.9 65
2019-06-23 18:00:00 25.9 13 Oeste 23 Oeste 0 1014.3 -1.3 62
2019-06-23 17:00:00 25.5 17 Oeste 25 Oeste 0 1014.7 -1.3 63
2019-06-23 16:00:00 25.8 18 Oeste 24 Oeste 0 1015 -1.1 63
2019-06-23 15:00:00 25.2 16 Oeste 23 Oeste 0 1015.6 -0.3 66
2019-06-23 14:00:00 25 15 Oeste 22 Oeste 0 1016 0.3 67
2019-06-23 13:00:00 24.8 16 Oeste 25 Oeste 0 1016.1 0.5 67
2019-06-23 12:00:00 25.7 9 Noroeste 24 Norte 0 1015.9 0.3 63
2019-06-23 11:00:00 23.7 17 Norte 33 Norte 0 1015.7 0.5 68
2019-06-23 10:00:00 23 22 Norte 33 Norte 0 1015.6 0.5 71
2019-06-23 09:00:00 23.1 10 Nordeste 27 Este 0 1015.6 0.8 67
2019-06-23 08:00:00 22 12 Este 34 Este 0 1015.2 0.3 68
2019-06-23 07:00:00 21.3 15 Este 42 Nordeste 0 1015.1 -0.1 74
2019-06-23 06:00:00 21.1 14 Este 34 Nordeste 0 1014.8 -1 74
2019-06-23 05:00:00 21.4 15 Nordeste 27 Este 0 1014.9 -1.5 74
2019-06-23 04:00:00 21.8 14 Este 38 Este 0 1015.2 -1.7 73
2019-06-23 03:00:00 22.1 17 Este 42 Este 0 1015.8 -1.3 65
2019-06-23 02:00:00 21.8 16 Este 41 Este 0 1016.4 -0.3 69
2019-06-23 01:00:00 22.1 17 Este 40 Este 0 1016.9 0.6 67
2019-06-23 00:00:00 22.1 20 Este 44 Este 0 1017.1 1 69
2019-06-22 23:00:00 22.1 23 Este 49 Nordeste 0 1016.7 1 67
2019-06-22 22:00:00 22.2 21 Este 48 Este 0 1016.3 0.5 66
2019-06-22 21:00:00 22.6 15 Sudeste 58 Este 0 1016.1 0.2 66
2019-06-22 20:00:00 23.5 15 Este 54 Este 0 1015.7 -0.4 65
2019-06-22 19:00:00 25.6 15 Este 52 Nordeste 0 1015.8 -0.6 57
2019-06-22 18:00:00 26.1 18 Nordeste 55 Este 0 1015.9 -0.7 52
2019-06-22 17:00:00 23.9 28 Norte 51 Nordeste 0 1016.1 -1 60
2019-06-22 16:00:00 23.7 37 Norte 54 Norte 0 1016.4 -1.3 59
2019-06-22 15:00:00 24.9 32 Norte 49 Norte 0 1016.6 -1.2 53
2019-06-22 14:00:00 24.8 24 Norte 47 Nordeste 0 1017.1 -1 55
2019-06-22 13:00:00 23.8 21 Norte 47 Norte 0 1017.7 -0.1 60
2019-06-22 12:00:00 23.6 24 Norte 46 Nordeste 0 1017.8 0.2 59
2019-06-22 11:00:00 23.7 16 Este 47 Este 0 1018.1 0.6 63
2019-06-22 10:00:00 22.7 16 Sudeste 38 Este 0 1017.8 0.5 65
2019-06-22 09:00:00 22.2 16 Sudeste 44 Este 0 1017.6 0.9 61
2019-06-22 08:00:00 20.2 19 Este 40 Nordeste 0 1017.5 0.6 72
2019-06-22 07:00:00 20.1 19 Sudeste 49 Este 0 1017.3 0.5 73
2019-06-22 06:00:00 20.2 17 Este 49 Sudeste 0 1016.7 -0.2 67
2019-06-22 05:00:00 20.4 17 Este 45 Este 0 1016.9 -0.3 65
2019-06-22 04:00:00 20.3 22 Este 51 Este 0 1016.8 -1.3 68
2019-06-22 03:00:00 20.6 24 Este 54 Este 0 1016.9 -1.3 66
2019-06-22 02:00:00 20.8 23 Este 57 Este 0 1017.2 -0.8 73
2019-06-22 01:00:00 21 19 Este 58 Este 0 1018.1 0.5 68
2019-06-22 00:00:00 20.9 30 Este 65 Este 0 1018.2 0.8 70
2019-06-21 23:00:00 21.5 26 Este 52 Este 0 1018 1.1 64
2019-06-21 22:00:00 21.9 15 Sudeste 50 Este 0 1017.6 0.6 61
2019-06-21 21:00:00 22.5 15 Sur 46 Este 0 1017.4 0.4 62
2019-06-21 20:00:00 23.7 18 Sur 52 Este 0 1016.9 0.2 59
2019-06-21 19:00:00 25.2 18 Este 68 Nordeste 0 1017 -0.3 55
2019-06-21 18:00:00 25.1 14 Este 55 Nordeste 0 1017 -0.6 53
2019-06-21 17:00:00 25.8 23 Nordeste 58 Nordeste 0 1016.7 -1.3 55
2019-06-21 16:00:00 25.1 14 Sudoeste 73 Nordeste 0 1017.3 -0.9 55
2019-06-21 15:00:00 25.2 14 Sur 54 Nordeste 0 1017.6 -0.9 53
2019-06-21 14:00:00 24.7 19 Nordeste 61 Nordeste 0 1018 -0.7 58
2019-06-21 13:00:00 26.1 18 Sudeste 50 Este 0 1018.2 -0.1 54
2019-06-21 12:00:00 25.7 22 Sudeste 61 Este 0 1018.5 0.5 55
2019-06-21 11:00:00 23.8 26 Este 57 Este 0 1018.7 1.3 60
2019-06-21 10:00:00 23.9 27 Sudeste 50 Este 0 1018.3 0.8 58
2019-06-21 09:00:00 22.3 27 Sudeste 49 Sudeste 0 1018 1.1 66
2019-06-21 08:00:00 21.3 26 Sudeste 53 Este 0 1017.4 0.2 66
2019-06-21 07:00:00 21 25 Sudeste 59 Este 0 1017.5 0.1 65
2019-06-21 06:00:00 21.1 26 Sudeste 50 Este 0 1016.9 -1.1 73
2019-06-21 05:00:00 21.1 21 Sudeste 51 Este 0 1017.2 -1.3 63
2019-06-21 04:00:00 21.1 25 Sudeste 48 Este 0 1017.4 -1.4 66
2019-06-21 03:00:00 21.4 24 Sudeste 49 Este 0 1018 -0.9 60
2019-06-21 02:00:00 21.6 26 Este 49 Este 0 1018.5 0 62
2019-06-21 01:00:00 21.7 24 Este 51 Este 0 1018.8 0.8 64
2019-06-21 00:00:00 22.2 23 Este 47 Este 0 1018.9 1.3 60
2019-06-20 23:00:00 22.2 25 Este 64 Este 0 1018.5 1.4 60
2019-06-20 22:00:00 22.6 25 Sudeste 49 Sudeste 0 1018 0.9 59
2019-06-20 21:00:00 23.1 24 Este 56 Este 0 1017.6 0.2 65
2019-06-20 20:00:00 24.9 28 Sudeste 53 Sudeste 0 1017.1 -0.1 61
2019-06-20 19:00:00 25.6 24 Sudeste 53 Sudeste 0 1017.1 -0.3 59
2019-06-20 18:00:00 26.6 18 Sudeste 55 Este 0 1017.4 -0.1 55
2019-06-20 17:00:00 26.3 14 Sur 62 Este 0 1017.2 -0.6 53
2019-06-20 16:00:00 26.9 11 Sur 59 Este 0 1017.4 -0.8 55
2019-06-20 15:00:00 26.5 18 Nordeste 62 Nordeste 0 1017.5 -1.1 54
2019-06-20 14:00:00 26.8 16 Norte 51 Este 0 1017.8 -1.1 50
2019-06-20 13:00:00 27.6 18 Sudeste 46 Este 0 1018.2 -0.4 48
2019-06-20 12:00:00 27.1 19 Este 49 Nordeste 0 1018.6 0.4 49
2019-06-20 11:00:00 25.4 19 Nordeste 37 Nordeste 0 1018.9 1 58
2019-06-20 10:00:00 24.6 15 Este 41 Este 0 1018.6 1 56
2019-06-20 09:00:00 23.4 16 Nordeste 39 Sudeste 0 1018.2 0.9 60
2019-06-20 08:00:00 22.1 18 Este 40 Este 0 1017.9 0.2 61
2019-06-20 07:00:00 21.5 12 Este 27 Sudeste 0 1017.6 -0.4 62
2019-06-20 06:00:00 21 15 Sudeste 35 Este 0 1017.3 -0.9 63
2019-06-20 05:00:00 20.9 19 Sudeste 36 Sudeste 0 1017.7 -1 66
2019-06-20 04:00:00 21.1 19 Este 38 Este 0 1018 -1.3 68
2019-06-20 03:00:00 21.4 20 Sudeste 43 Este 0 1018.2 -1.3 74
2019-06-20 02:00:00 21.6 19 Este 36 Este 0 1018.7 -0.1 73
2019-06-20 01:00:00 22.1 19 Este 40 Este 0 1019.3 0.7 74
2019-06-20 00:00:00 22.2 15 Sudeste 29 Este 0 1019.5 1.7 68
2019-06-19 23:00:00 22.6 14 Sudeste 31 Este 0 1018.8 1.3 64
2019-06-19 22:00:00 22.9 12 Nordeste 37 Nordeste 0 1018.6 1.3 64
2019-06-19 21:00:00 23 11 Norte 46 Nordeste 0 1017.8 0.3 65
2019-06-19 20:00:00 24.2 21 Norte 43 Norte 0 1017.5 -0.1 61
2019-06-19 19:00:00 24.4 27 Norte 43 Norte 0 1017.3 -0.7 60
2019-06-19 18:00:00 26 16 Norte 49 Nordeste 0 1017.5 -0.7 54
2019-06-19 17:00:00 27.4 14 Nordeste 44 Este 0 1017.6 -1.3 48
2019-06-19 16:00:00 28.2 14 Nordeste 37 Nordeste 0 1018 -1 46
2019-06-19 15:00:00 27 16 Nordeste 35 Nordeste 0 1018.2 -0.5 49
2019-06-19 14:00:00 26 14 Norte 34 Nordeste 0 1018.9 0.5 56
2019-06-19 13:00:00 25.6 14 Norte 44 Norte 0 1019 0.9 54
2019-06-19 12:00:00 25.4 13 Norte 34 Este 0 1018.7 1 52
2019-06-19 11:00:00 25.1 17 Nordeste 33 Este 0 1018.4 0.9 56
2019-06-19 10:00:00 24.4 15 Nordeste 32 Este 0 1018.1 0.9 57
2019-06-19 09:00:00 23.9 13 Nordeste 22 Nordeste 0 1017.7 0.9 56
2019-06-19 08:00:00 22.1 9 Nordeste 22 Nordeste 0 1017.5 0.7 61
2019-06-19 07:00:00 21.8 15 Nordeste 27 Nordeste 0 1017.2 0.5 72
2019-06-19 06:00:00 21.8 17 Nordeste 27 Nordeste 0 1016.8 0.1 80
2019-06-19 05:00:00 21.9 9 Nordeste 21 Norte 0 1016.8 -0.5 72
2019-06-19 04:00:00 21.9 8 Nordeste 26 Norte 0 1016.7 -1 73
2019-06-19 03:00:00 22.2 16 Norte 29 Nordeste 0 1016.7 -1.2 73
2019-06-19 02:00:00 22.5 9 Nordeste 18 Nordeste 0 1017.3 -0.5 72
2019-06-19 01:00:00 22.3 5 Nordeste 23 Norte 0 1017.7 0 71
2019-06-19 00:00:00 22.8 7 Nordeste 25 Norte 0 1017.9 0.6 73
2019-06-18 23:00:00 22.9 15 Norte 27 Norte 0 1017.8 0.7 74
2019-06-18 22:00:00 23 6 Oeste 18 Noroeste 0 1017.7 0.7 75
2019-06-18 21:00:00 23.3 7 Noroeste 19 Noroeste 0 1017.3 0.3 72
2019-06-18 20:00:00 23.6 10 Oeste 19 Sudoeste 0 1017.1 -0.1 70
2019-06-18 19:00:00 24 11 Oeste 23 Oeste 0 1017 -0.2 67
2019-06-18 18:00:00 25.9 12 Oeste 23 Oeste 0 1017 -0.1 60
2019-06-18 17:00:00 26.3 14 Oeste 26 Oeste 0 1017.2 -0.1 59
2019-06-18 16:00:00 26.7 13 Oeste 26 Oeste 0 1017.2 -0.5 58
2019-06-18 15:00:00 26.1 19 Oeste 30 Oeste 0 1017.1 -0.7 61
2019-06-18 14:00:00 26.2 15 Oeste 27 Oeste 0 1017.3 -0.2 61
2019-06-18 13:00:00 25.4 16 Noroeste 26 Noroeste 0 1017.7 0.5 64
2019-06-18 12:00:00 26 9 Norte 24 Noroeste 0 1017.8 0.6 55
2019-06-18 11:00:00 25.7 10 Nordeste 24 Nordeste 0 1017.5 0.8 57
2019-06-18 10:00:00 23.4 5 Norte 15 Noroeste 0 1017.2 1 66
2019-06-18 09:00:00 21.5 2 Nordeste 6 Sudeste 0 1017.2 1.4 72
2019-06-18 08:00:00 17.9 4 Este 9 Sudeste 0 1016.7 1 81
2019-06-18 07:00:00 17.1 4 Este 7 Sudeste 0 1016.2 0.3 81
2019-06-18 06:00:00 17.5 5 Este 8 Este 0 1015.8 -0.4 81
2019-06-18 05:00:00 18 6 Este 9 Este 0 1015.7 -1.2 81
2019-06-18 04:00:00 18.1 6 Sudeste 8 Sudeste 0 1015.9 -1.5 79
2019-06-18 03:00:00 19 6 Sudeste 9 Sudeste 0 1016.2 -1.6 76
2019-06-18 02:00:00 19.4 6 Este 8 Sudeste 0 1016.9 -0.8 76
2019-06-18 01:00:00 20 6 Sudeste 8 Sudeste 0 1017.4 -0.2 74
2019-06-18 00:00:00 20.8 6 Sudeste 8 Sudeste 0 1017.8 0.5 75
2019-06-17 23:00:00 21.6 5 Noroeste 9 Noroeste 0 1017.7 0.6 78
2019-06-17 22:00:00 21.9 7 Oeste 10 Oeste 0 1017.6 0.5 71
2019-06-17 21:00:00 22.4 8 Noroeste 15 Oeste 0 1017.3 0.1 69
2019-06-17 20:00:00 23.6 12 Oeste 17 Oeste 0 1017.1 -0.2 65
2019-06-17 19:00:00 24.1 13 Oeste 23 Oeste 0 1017.1 -0.5 62
2019-06-17 18:00:00 24.5 16 Oeste 25 Oeste 0 1017.2 -0.7 61
2019-06-17 17:00:00 24.7 15 Oeste 25 Sudoeste 0 1017.3 -0.8 60
2019-06-17 16:00:00 24.6 17 Oeste 26 Oeste 0 1017.6 -0.9 59
2019-06-17 15:00:00 24.2 17 Oeste 25 Noroeste 0 1017.9 -0.7 60
2019-06-17 14:00:00 23.9 16 Oeste 24 Oeste 0 1018.1 -0.3 60
2019-06-17 13:00:00 23.5 16 Oeste 22 Noroeste 0 1018.5 0.4 62
2019-06-17 12:00:00 22.5 13 Oeste 21 Oeste 0 1018.6 0.5 64
2019-06-17 11:00:00 22.1 13 Oeste 21 Oeste 0 1018.4 0.6 63
2019-06-17 10:00:00 22 8 Oeste 13 Oeste 0 1018.1 0.3 60
2019-06-17 09:00:00 20.3 2 Este 9 Sudeste 0 1018.1 0.2 63
2019-06-17 08:00:00 16.4 5 Este 12 Sudeste 0 1017.8 -0.2 77
2019-06-17 07:00:00 15.5 6 Este 10 Este 0 1017.8 -0.5 80
2019-06-17 06:00:00 15.5 6 Sudeste 10 Sudeste 0 1017.9 -0.6 79
2019-06-17 05:00:00 15.9 7 Este 10 Sudeste 0 1018 -1.5 79
2019-06-17 04:00:00 16.7 4 Este 10 Sudeste 0 1018.3 -1.7 76
2019-06-17 03:00:00 17.3 7 Sudeste 11 Este 0 1018.5 -1.7 73
2019-06-17 02:00:00 17.9 8 Sudeste 10 Sudeste 0 1019.5 -0.2 72
2019-06-17 01:00:00 18.9 5 Este 8 Sudeste 0 1020 0.7 69
2019-06-17 00:00:00 19.9 5 Oeste 10 Oeste 0 1020.2 1.1 71
2019-06-16 23:00:00 20.5 6 Oeste 10 Oeste 0 1019.7 0.9 67
2019-06-16 22:00:00 21.3 6 Norte 16 Norte 0 1019.3 0.8 64
2019-06-16 21:00:00 21.9 7 Noroeste 22 Norte 0 1019.1 0.5 63
2019-06-16 20:00:00 23 12 Norte 23 Norte 0 1018.8 0 58
2019-06-16 19:00:00 23.7 14 Norte 22 Norte 0 1018.5 -0.7 55
2019-06-16 18:00:00 24.4 10 Noroeste 24 Noroeste 0 1018.6 -0.9 54
2019-06-16 17:00:00 23.7 13 Noroeste 28 Norte 0 1018.8 -1 56
2019-06-16 16:00:00 23.9 19 Norte 27 Norte 0 1019.2 -0.7 56
2019-06-16 15:00:00 24.5 14 Norte 29 Norte 0 1019.5 -0.3 54
2019-06-16 14:00:00 23.4 18 Norte 36 Nordeste 0 1019.8 0.2 59
2019-06-16 13:00:00 24.3 20 Norte 34 Norte 0 1019.9 0.3 55
2019-06-16 12:00:00 23.3 19 Norte 33 Nordeste 0 1019.8 0.4 56
2019-06-16 11:00:00 22.3 17 Norte 34 Nordeste 0 1019.6 0.7 60
2019-06-16 10:00:00 21.1 9 Norte 23 Norte 0 1019.6 1.2 61
2019-06-16 09:00:00 20.3 4 Sudeste 10 Este 0 1019.4 1.2 63
2019-06-16 08:00:00 16.3 7 Este 14 Sudeste 0 1018.9 0.9 78
2019-06-16 07:00:00 15.5 8 Este 12 Este 0 1018.4 0.2 79
2019-06-16 06:00:00 15.6 5 Este 10 Este 0 1018.2 -0.4 78
2019-06-16 05:00:00 15.7 8 Sudeste 10 Sudeste 0 1018 -1.2 77
2019-06-16 04:00:00 16.3 7 Sudeste 9 Sudeste 0 1018.2 -1.4 75
2019-06-16 03:00:00 17 5 Este 10 Sudeste 0 1018.6 -0.9 71
2019-06-16 02:00:00 17.7 3 Este 7 Este 0 1019.2 0 69
2019-06-16 01:00:00 19.8 3 Noroeste 16 Norte 0 1019.6 0.7 66
2019-06-16 00:00:00 20.2 10 Norte 35 Norte 0 1019.5 1 65
2019-06-15 23:00:00 20.4 25 Norte 38 Norte 0 1019.2 1.2 64
2019-06-15 22:00:00 20.9 18 Norte 33 Norte 0 1018.9 1.3 62
2019-06-15 21:00:00 21.6 17 Norte 41 Nordeste 0 1018.5 0.7 59
2019-06-15 20:00:00 22.7 20 Nordeste 34 Norte 0 1018 0.1 55
2019-06-15 19:00:00 23.8 22 Nordeste 35 Nordeste 0 1017.6 -0.8 52
2019-06-15 18:00:00 24.5 14 Nordeste 37 Nordeste 0 1017.8 -1.1 51
2019-06-15 17:00:00 26 15 Nordeste 42 Nordeste 0 1017.9 -0.9 47
2019-06-15 16:00:00 24.2 13 Norte 31 Noroeste 0 1018.4 -1.1 52
2019-06-15 15:00:00 23.3 20 Norte 31 Noroeste 0 1018.9 -0.6 56
2019-06-15 14:00:00 24.1 16 Norte 31 Nordeste 0 1018.8 -0.3 51
2019-06-15 13:00:00 23.5 17 Noroeste 34 Nordeste 0 1019.5 0.7 50
2019-06-15 12:00:00 24 11 Nordeste 25 Norte 0 1019.5 0.9 47
2019-06-15 11:00:00 22.9 9 Norte 23 Norte 0 1019.1 0.9 48
2019-06-15 10:00:00 22.2 12 Norte 24 Nordeste 0 1018.8 1 51
2019-06-15 09:00:00 20 4 Sur 9 Este 0 1018.6 0.5 50
2019-06-15 08:00:00 16.1 8 Este 10 Este 0 1018.2 0.4 61
2019-06-15 07:00:00 14.8 8 Este 9 Este 0 1017.8 -0.2 65
2019-06-15 06:00:00 15.6 6 Sudeste 17 Sudeste 0 1018.1 -0.3 63
2019-06-15 05:00:00 16.2 13 Sudeste 20 Este 0 1017.8 -1.1 63
2019-06-15 04:00:00 16.2 8 Este 28 Nordeste 0 1018 -1.4 63
2019-06-15 03:00:00 19.8 20 Nordeste 41 Este 0 1018.4 -1 53
2019-06-15 02:00:00 19.8 19 Este 46 Este 0 1018.9 -0.2 54
2019-06-15 01:00:00 20.2 16 Sudeste 37 Este 0 1019.4 0.6 50
2019-06-15 00:00:00 20.6 22 Nordeste 38 Nordeste 0 1019.4 1.2 48
2019-06-14 23:00:00 20.8 21 Norte 35 Nordeste 0 1019.1 1 50
2019-06-14 22:00:00 20.6 21 Norte 35 Nordeste 0 1018.8 0.8 60
2019-06-14 21:00:00 21.5 14 Nordeste 38 Este 0 1018.2 0.3 57
2019-06-14 20:00:00 23.7 14 Sudeste 36 Sudeste 0 1018.1 0.2 48
2019-06-14 19:00:00 24.7 15 Sudeste 51 Nordeste 0 1018 -0.1 44
2019-06-14 18:00:00 25 12 Oeste 29 Noroeste 0 1017.9 -0.4 41
2019-06-14 17:00:00 24.5 9 Sudeste 40 Este 0 1017.9 -1 43
2019-06-14 16:00:00 24.5 14 Norte 41 Norte 0 1018.1 -1.1 48
2019-06-14 15:00:00 23 12 Norte 37 Noroeste 0 1018.3 -1 58
2019-06-14 14:00:00 22.7 9 Noroeste 39 Noroeste 0 1018.9 0.1 57
2019-06-14 13:00:00 22.5 10 Sudoeste 39 Noroeste 0 1019.2 1 60
2019-06-14 12:00:00 23.4 11 Norte 32 Nordeste 0 1019.3 1.2 55
2019-06-14 11:00:00 23.1 6 Sudoeste 32 Noroeste 0 1018.8 0.9 55
2019-06-14 10:00:00 22.3 10 Este 29 Sudeste 0 1018.2 1 52
2019-06-14 09:00:00 19.9 12 Este 22 Este 0 1018.1 1.5 56
2019-06-14 08:00:00 16.1 11 Sudeste 16 Sudeste 0 1017.9 1.5 67
2019-06-14 07:00:00 15.1 8 Sudeste 24 Nordeste 0 1017.2 1.2 68
2019-06-14 06:00:00 19 17 Nordeste 25 Nordeste 0 1016.6 0 65
2019-06-14 05:00:00 19.2 16 Nordeste 24 Norte 0 1016.4 -0.7 61
2019-06-14 04:00:00 19.1 19 Nordeste 28 Nordeste 0 1016 -1.9 62
2019-06-14 03:00:00 17.9 7 Este 20 Nordeste 0 1016.6 -1.1 60
2019-06-14 02:00:00 19.1 5 Este 28 Nordeste 0 1017.1 -0.6 59
2019-06-14 01:00:00 19.7 14 Nordeste 43 Este 0 1017.9 0.5 64
2019-06-14 00:00:00 19.8 22 Sudeste 48 Este 0 1017.7 1.2 66
2019-06-13 23:00:00 20.1 14 Este 42 Nordeste 0 1017.7 1.4 65
2019-06-13 22:00:00 20.3 15 Nordeste 41 Nordeste 0 1017.4 1.3 65
2019-06-13 21:00:00 21.1 14 Nordeste 42 Nordeste 0 1016.5 0.7 59
2019-06-13 20:00:00 22.6 10 Nordeste 48 Nordeste 0 1016.3 0.6 52
2019-06-13 19:00:00 23 16 Norte 51 Nordeste 0 1016.1 0.4 52
2019-06-13 18:00:00 25.3 19 Este 43 Nordeste 0 1015.8 -0.2 46
2019-06-13 17:00:00 24 14 Sudoeste 43 Este 0 1015.7 -0.6 49
2019-06-13 16:00:00 24 12 Oeste 40 Este 0 1015.7 -0.9 49
2019-06-13 15:00:00 26.2 13 Este 45 Nordeste 0 1016 -0.5 41
2019-06-13 14:00:00 24.9 9 Sudoeste 40 Este 0 1016.3 0.1 45
2019-06-13 13:00:00 26.3 17 Sudeste 38 Este 0 1016.6 1 42
2019-06-13 12:00:00 24.7 16 Sudeste 45 Este 0 1016.5 1.3 44
2019-06-13 11:00:00 22.4 14 Este 43 Este 0 1016.2 1.9 53
2019-06-13 10:00:00 21.8 14 Este 33 Este 0 1015.6 1.5 54
2019-06-13 09:00:00 20.3 19 Este 48 Este 0 1015.2 1.2 62
2019-06-13 08:00:00 19.6 20 Este 41 Nordeste 0 1014.3 0.3 61
2019-06-13 07:00:00 19.5 18 Sudeste 37 Este 0 1014.1 -0.1 66
2019-06-13 06:00:00 19.4 14 Sudeste 35 Este 0 1014 -0.6 66
2019-06-13 05:00:00 19.1 18 Este 35 Este 0 1014 -1 66
2019-06-13 04:00:00 19.6 16 Este 39 Este 0 1014.2 -0.9 64
2019-06-13 03:00:00 19.7 19 Este 35 Este 0 1014.6 -0.6 55
2019-06-13 02:00:00 19.4 18 Sudeste 48 Este 0 1015 0.4 61
2019-06-13 01:00:00 20 20 Este 42 Este 0 1015.1 0.6 59
2019-06-13 00:00:00 19.7 22 Sudeste 51 Este 0 1015.2 1.3 60
2019-06-12 23:00:00 20.2 23 Sudeste 48 Este 0 1014.6 1.2 60
2019-06-12 22:00:00 20.8 19 Este 50 Este 0 1014.5 1.6 61
2019-06-12 21:00:00 21.3 20 Este 52 Sudeste 0 1013.9 1 60
2019-06-12 20:00:00 22 24 Este 55 Este 0 1013.4 0.4 65
2019-06-12 19:00:00 24.1 27 Sudeste 55 Este 0 1012.9 -0.4 56
2019-06-12 18:00:00 23.5 27 Sudeste 56 Este 0 1012.9 -1.1 60
2019-06-12 17:00:00 24.9 21 Este 48 Este 0 1013 -1.1 54
2019-06-12 16:00:00 28 18 Sudeste 42 Este 0 1013.3 -1.2 40
2019-06-12 15:00:00 27.2 20 Sudeste 46 Este 0 1014 -0.8 46
2019-06-12 14:00:00 26.5 17 Nordeste 50 Este 0 1014.1 -0.5 46
2019-06-12 13:00:00 26.5 21 Este 58 Este 0 1014.5 -0.2 48
2019-06-12 12:00:00 23.7 29 Este 55 Este 0 1014.8 1 60
2019-06-12 11:00:00 22.7 17 Este 50 Este 0.2 1014.6 1.6 62
2019-06-12 10:00:00 19.1 24 Este 55 Este 0 1014.7 1.6 87
2019-06-12 09:00:00 20.7 23 Este 67 Este 0 1013.8 0.7 73
2019-06-12 08:00:00 20.4 24 Sudeste 51 Sudeste 0 1013 0 69
2019-06-12 07:00:00 19.2 25 Este 59 Este 0 1013.1 -0.6 84
2019-06-12 06:00:00 19.4 19 Este 48 Este 0 1013.1 -0.7 77
2019-06-12 05:00:00 19.2 21 Este 59 Este 0.2 1013 -1.4 78
2019-06-12 04:00:00 18.8 30 Este 55 Este 0.2 1013.7 -1.3 86
2019-06-12 03:00:00 19.1 24 Sudeste 53 Este 0 1013.8 -1.5 82
2019-06-12 02:00:00 20.4 27 Sudeste 57 Este 0 1014.4 -0.8 70
2019-06-12 01:00:00 20.1 28 Este 58 Sudeste 0 1015 0.1 77
2019-06-12 00:00:00 20.7 33 Este 68 Este 0 1015.3 0.2 72
2019-06-11 23:00:00 21.3 23 Sudeste 60 Este 0 1015.2 1.1 67
2019-06-11 22:00:00 21.4 26 Este 57 Este 0 1014.9 0.5 64
2019-06-11 21:00:00 21.6 24 Sudeste 66 Este 0 1015.1 1 61
2019-06-11 20:00:00 22.5 29 Sudeste 68 Este 0 1014.1 -1.1 57
2019-06-11 19:00:00 24.2 27 Sudeste 71 Este 0 1014.4 -0.6 55
2019-06-11 18:00:00 24 31 Este 70 Este 0 1014.1 -1.5 55
2019-06-11 17:00:00 23.8 26 Sudeste 69 Este 0 1015.2 -1.2 59
2019-06-11 16:00:00 26.8 26 Este 61 Este 0 1015 -1.6 47
2019-06-11 15:00:00 27.8 27 Este 66 Este 0 1015.6 -1.2 44
2019-06-11 14:00:00 24.4 26 Este 63 Este 0 1016.4 0.1 57
2019-06-11 13:00:00 23.6 27 Este 57 Este 0 1016.6 0 61
2019-06-11 12:00:00 25.4 29 Este 64 Este 0 1016.8 -0.2 50
2019-06-11 11:00:00 23.8 29 Este 69 Este 0 1016.3 -0.3 55
2019-06-11 10:00:00 22.3 24 Este 62 Este 0 1016.6 0.2 55
2019-06-11 09:00:00 20.9 27 Este 66 Este 0 1017 0.5 61
2019-06-11 08:00:00 19.3 27 Este 56 Este 0 1016.6 -0.3 73
2019-06-11 07:00:00 19.3 32 Este 54 Este 0 1016.4 -0.7 68
2019-06-11 06:00:00 19.4 27 Sudeste 55 Este 0 1016.5 -1.1 67
2019-06-11 05:00:00 19.8 22 Este 50 Este 0 1016.9 -1.5 59
2019-06-11 04:00:00 19.5 30 Este 55 Este 0 1017.1 -1.7 64
2019-06-11 03:00:00 19.4 30 Este 63 Este 0 1017.6 -1.4 69
2019-06-11 02:00:00 19.9 26 Este 65 Este 0 1018.4 -0.5 67
2019-06-11 01:00:00 19.8 32 Este 63 Este 0 1018.8 0.6 67
2019-06-11 00:00:00 20 33 Este 66 Este 0 1019 1 70
2019-06-10 23:00:00 20.1 28 Este 68 Este 0 1018.9 1.5 69
2019-06-10 22:00:00 20.5 35 Este 70 Este 0 1018.2 0.7 65
2019-06-10 21:00:00 21 35 Este 75 Este 0 1018 0.8 65
2019-06-10 20:00:00 21.8 39 Este 73 Este 0 1017.4 -0.8 66
2019-06-10 19:00:00 24.8 31 Este 72 Este 0 1017.5 -1.1 47
2019-06-10 18:00:00 25.4 37 Este 73 Este 0 1017.2 -1.8 46
2019-06-10 17:00:00 25.7 32 Este 83 Nordeste 0 1018.2 -1.4 45
2019-06-10 16:00:00 26.3 28 Este 76 Este 0 1018.6 -1.3 47
2019-06-10 15:00:00 26 23 Este 72 Este 0 1019 -1.1 46
2019-06-10 14:00:00 25.9 23 Este 74 Este 0 1019.6 -0.8 45
2019-06-10 13:00:00 25.5 31 Este 77 Este 0 1019.9 -0.2 50
2019-06-10 12:00:00 25 32 Este 77 Este 0 1020.1 0.1 47
2019-06-10 11:00:00 23.5 38 Este 70 Este 0 1020.4 0.3 52
2019-06-10 10:00:00 22.4 36 Este 66 Este 0 1020.1 0.5 55
2019-06-10 09:00:00 21.1 32 Este 71 Este 0 1020 0.2 56
2019-06-10 08:00:00 19.8 31 Este 64 Este 0 1020.1 0.1 64
2019-06-10 07:00:00 19.4 28 Nordeste 78 Este 0 1019.6 -0.5 63
2019-06-10 06:00:00 19.3 33 Nordeste 71 Nordeste 0 1019.8 -0.4 66
2019-06-10 05:00:00 19.3 33 Nordeste 70 Nordeste 0 1020 -0.6 67
2019-06-10 04:00:00 19.7 35 Nordeste 81 Nordeste 0 1020.1 -0.9 63
2019-06-10 03:00:00 19.7 30 Nordeste 69 Nordeste 0 1020.2 -0.8 68
2019-06-10 02:00:00 19.9 38 Nordeste 77 Nordeste 0 1020.6 -0.4 64
2019-06-10 01:00:00 20.2 40 Nordeste 71 Nordeste 0 1021 0.4 65
2019-06-10 00:00:00 20.3 43 Nordeste 71 Nordeste 0 1021 0.7 65
2019-06-09 23:00:00 20.4 45 Nordeste 71 Nordeste 0 1021 0.8 61
2019-06-09 22:00:00 20.4 45 Nordeste 77 Este 0 1020.6 0.9 61
2019-06-09 21:00:00 20.6 34 Nordeste 81 Nordeste 0 1020.3 0.5 60
2019-06-09 20:00:00 21.9 37 Nordeste 89 Nordeste 0 1020.2 0.2 55
2019-06-09 19:00:00 23.1 31 Nordeste 83 Este 0 1019.7 -0.5 51
2019-06-09 18:00:00 23.3 36 Nordeste 74 Nordeste 0 1019.8 -0.6 50
2019-06-09 17:00:00 23.8 34 Nordeste 71 Nordeste 0 1020 -1 48
2019-06-09 16:00:00 24.1 23 Nordeste 80 Nordeste 0 1020.2 -1.3 48
2019-06-09 15:00:00 24 28 Nordeste 72 Nordeste 0 1020.4 -0.7 45
2019-06-09 14:00:00 24.8 29 Nordeste 69 Este 0 1021 -0.4 44
2019-06-09 13:00:00 24.6 30 Este 81 Este 0 1021.5 0.3 46
2019-06-09 12:00:00 23.9 27 Este 72 Este 0 1021.1 -0.1 46
2019-06-09 11:00:00 22.3 35 Nordeste 64 Este 0 1021.4 0.6 52
2019-06-09 10:00:00 22.2 27 Este 71 Este 0 1021.2 0.7 55
2019-06-09 09:00:00 20.8 26 Este 51 Este 0 1021.2 0.6 50
2019-06-09 08:00:00 19.8 19 Nordeste 44 Nordeste 0 1020.8 0.6 58
2019-06-09 07:00:00 19.3 23 Nordeste 45 Nordeste 0 1020.5 0.3 55
2019-06-09 06:00:00 19.5 24 Nordeste 53 Este 0 1020.6 -0.4 59
2019-06-09 05:00:00 19.6 21 Nordeste 54 Este 0 1020.2 -0.8 58
2019-06-09 04:00:00 19.3 28 Este 53 Este 0 1020.2 -1 59
2019-06-09 03:00:00 19.7 26 Nordeste 54 Este 0 1021 -0.5 51
2019-06-09 02:00:00 19.9 21 Este 55 Nordeste 0 1021 -0.2 56
2019-06-09 01:00:00 20 22 Este 48 Este 0 1021.2 1 56
2019-06-09 00:00:00 20.2 24 Nordeste 61 Este 0 1021.5 1.6 55
2019-06-08 23:00:00 20.4 24 Nordeste 63 Nordeste 0 1021.2 1.9 59
2019-06-08 22:00:00 20.7 28 Nordeste 69 Nordeste 0 1020.2 0.9 59
2019-06-08 21:00:00 21.2 32 Este 65 Este 0 1019.9 0.4 57
2019-06-08 20:00:00 22.8 15 Este 60 Este 0 1019.3 0 56
2019-06-08 19:00:00 23.3 13 Este 54 Este 0 1019.3 0.2 55
2019-06-08 18:00:00 24.2 13 Sudeste 48 Nordeste 0 1019.5 -0.1 53
2019-06-08 17:00:00 25 14 Sudeste 54 Sudeste 0 1019.3 -0.4 47
2019-06-08 16:00:00 25.4 19 Este 54 Este 0 1019.1 -0.7 50
2019-06-08 15:00:00 25.1 17 Oeste 45 Oeste 0 1019.6 -0.2 51
2019-06-08 14:00:00 24.7 14 Sur 52 Este 0 1019.7 -0.1 58
2019-06-08 13:00:00 25.2 16 Sur 46 Este 0 1019.8 0.4 55
2019-06-08 12:00:00 25.6 19 Sudeste 57 Nordeste 0 1019.8 0.8 50
2019-06-08 11:00:00 24.4 23 Nordeste 52 Este 0 1019.8 1.1 52
2019-06-08 10:00:00 22.5 19 Este 53 Nordeste 0 1019.4 1.4 64
2019-06-08 09:00:00 22.6 23 Este 47 Este 0 1019 1.5 63
2019-06-08 08:00:00 21.8 18 Nordeste 53 Este 0 1018.7 1.3 55
2019-06-08 07:00:00 21.6 22 Este 45 Este 0 1018 0.4 58
2019-06-08 06:00:00 21.6 21 Nordeste 51 Este 0 1017.5 -0.2 61
2019-06-08 05:00:00 21.4 19 Norte 43 Nordeste 0 1017.4 -0.7 65
2019-06-08 04:00:00 21.2 20 Norte 37 Nordeste 0 1017.6 -0.5 71
2019-06-08 03:00:00 21.1 23 Nordeste 36 Nordeste 0 1017.7 -0.7 70
2019-06-08 02:00:00 21.2 22 Nordeste 51 Este 0 1018.1 0 70
2019-06-08 01:00:00 21.4 24 Este 50 Este 0 1018.1 0.3 69
2019-06-08 00:00:00 21.4 25 Este 57 Este 0 1018.4 1.3 66
2019-06-07 23:00:00 21 22 Este 57 Este 0 1018.1 1.2 72
2019-06-07 22:00:00 21 23 Nordeste 58 Nordeste 0 1017.8 0.8 75
2019-06-07 21:00:00 21.8 16 Este 58 Este 0 1017.1 0.4 64
2019-06-07 20:00:00 22.6 18 Norte 59 Nordeste 0 1016.9 0.3 63
2019-06-07 19:00:00 23.2 17 Nordeste 56 Este 0 1017 0 65
2019-06-07 18:00:00 24.9 16 Sudeste 52 Este 0 1016.7 -0.6 55
2019-06-07 17:00:00 24.9 16 Sudeste 47 Este 0 1016.6 -0.4 55
2019-06-07 16:00:00 24.4 15 Oeste 53 Este 0 1017 -0.1 56
2019-06-07 15:00:00 24.3 18 Sur 56 Nordeste 0 1017.3 -0.2 59
2019-06-07 14:00:00 24.9 21 Sudeste 67 Este 0 1017 0 53
2019-06-07 13:00:00 24.8 20 Sudoeste 60 Este 0 1017.1 0 48
2019-06-07 12:00:00 24.8 35 Nordeste 57 Nordeste 0 1017.5 0.6 45
2019-06-07 11:00:00 24.7 30 Este 57 Este 0 1017 0.2 47
2019-06-07 10:00:00 22.6 29 Este 55 Este 0 1017.1 0.6 56
2019-06-07 09:00:00 20.8 24 Este 44 Este 0 1016.9 1.1 62
2019-06-07 08:00:00 19.7 21 Este 50 Este 0 1016.8 0.9 66
2019-06-07 07:00:00 19.3 21 Sudeste 57 Este 0 1016.5 0.1 70
2019-06-07 06:00:00 19.9 30 Sudeste 49 Este 0 1015.8 -1 63
2019-06-07 05:00:00 19.8 19 Este 39 Este 0 1015.9 -1.5 56
2019-06-07 04:00:00 19.6 20 Este 44 Este 0 1016.4 -1 59
2019-06-07 03:00:00 19.5 17 Este 47 Este 0 1016.8 -0.7 54
2019-06-07 02:00:00 19.8 24 Este 52 Este 0 1017.4 0.1 65
2019-06-07 01:00:00 20.5 18 Este 39 Este 0 1017.4 0.6 59
2019-06-07 00:00:00 20.2 22 Este 44 Sudeste 0 1017.5 0.8 53
2019-06-06 23:00:00 20.4 18 Este 44 Este 0 1017.3 1.5 54
2019-06-06 22:00:00 20.1 22 Este 53 Sudeste 0 1016.8 1.2 56
2019-06-06 21:00:00 20.8 26 Este 60 Este 0 1016.7 0.9 55
2019-06-06 20:00:00 22.4 28 Este 64 Este 0 1015.8 -0.3 50
2019-06-06 19:00:00 24 26 Sudeste 62 Este 0 1015.6 -0.4 46
2019-06-06 18:00:00 25.3 21 Sudeste 63 Este 0 1015.8 -0.2 40
2019-06-06 17:00:00 24.7 17 Sudeste 60 Este 0 1016.1 0.3 46
2019-06-06 16:00:00 23.2 20 Sur 58 Este 0 1016 -0.7 53
2019-06-06 15:00:00 24.7 18 Sur 47 Este 0 1016 -1.1 49
2019-06-06 14:00:00 25.3 21 Sudeste 60 Este 0 1015.8 -1.2 45
2019-06-06 13:00:00 25.6 21 Sudeste 61 Este 0 1016.7 0.2 44
2019-06-06 12:00:00 24.9 22 Nordeste 42 Nordeste 0 1017.1 1.1 39
2019-06-06 11:00:00 22.3 25 Este 50 Este 0 1017 1.1 56
2019-06-06 10:00:00 21.5 24 Sudeste 39 Este 0 1016.5 0.6 59
2019-06-06 09:00:00 21.1 17 Este 44 Este 0 1016 0.3 50
2019-06-06 08:00:00 19.8 18 Sudeste 42 Este 0 1015.9 -0.1 64
2019-06-06 07:00:00 19.7 20 Este 49 Este 0 1015.9 -0.4 62
2019-06-06 06:00:00 19.6 18 Este 42 Este 0 1015.7 -0.8 62
2019-06-06 05:00:00 19.7 13 Este 37 Este 0 1016 -1 57
2019-06-06 04:00:00 20 20 Este 41 Este 0 1016.3 -0.9 65
2019-06-06 03:00:00 20 18 Este 47 Este 0 1016.5 -0.6 64
2019-06-06 02:00:00 20.1 24 Nordeste 51 Este 0 1017 0 66
2019-06-06 01:00:00 20.3 24 Nordeste 44 Nordeste 0 1017.2 0.1 70
2019-06-06 00:00:00 20.6 24 Este 53 Este 0 1017.1 0.6 65
2019-06-05 23:00:00 20.8 31 Este 57 Este 0 1017 0.9 71
2019-06-05 22:00:00 21.1 25 Nordeste 50 Este 0 1017.1 1 71
2019-06-05 21:00:00 21.7 33 Este 59 Este 0 1016.5 0.4 70
2019-06-05 20:00:00 23.2 30 Este 64 Este 0 1016.1 -0.2 64
2019-06-05 19:00:00 24.5 28 Este 67 Este 0 1016.1 0 59
2019-06-05 18:00:00 24.3 21 Sudeste 67 Este 0 1016.1 -0.5 59
2019-06-05 17:00:00 25 19 Nordeste 64 Nordeste 0 1016.3 -0.2 58
2019-06-05 16:00:00 25.2 16 Sur 65 Nordeste 0 1016.1 -1.1 58
2019-06-05 15:00:00 25.6 18 Sudeste 53 Este 0 1016.6 -0.7 57
2019-06-05 14:00:00 25.9 21 Sudeste 63 Este 0 1016.5 -0.3 55
2019-06-05 13:00:00 25.2 21 Nordeste 64 Nordeste 0 1017.2 0.6 55
2019-06-05 12:00:00 24.3 36 Nordeste 65 Este 0 1017.3 0.5 62
2019-06-05 11:00:00 25.3 28 Este 61 Este 0 1016.8 0 55
2019-06-05 10:00:00 24.3 26 Este 57 Este 0 1016.6 0.6 56
2019-06-05 09:00:00 22.6 25 Nordeste 50 Nordeste 0 1016.8 0.6 61
2019-06-05 08:00:00 21.4 28 Este 57 Este 0 1016.8 0.2 66
2019-06-05 07:00:00 21.1 29 Este 66 Este 0 1016 -0.8 67
2019-06-05 06:00:00 21.2 30 Nordeste 50 Nordeste 0 1016.2 -1.1 65
2019-06-05 05:00:00 20.5 26 Nordeste 58 Este 0 1016.6 -0.6 77
2019-06-05 04:00:00 21.7 22 Este 51 Este 0 1016.8 -1.3 66
2019-06-05 03:00:00 21.1 28 Nordeste 66 Nordeste 0 1017.3 -1.1 65
2019-06-05 02:00:00 20.9 29 Este 69 Este 0 1017.2 -1.1 66
2019-06-05 01:00:00 20.8 31 Nordeste 64 Nordeste 0 1018.1 0.6 72
2019-06-05 00:00:00 21 31 Nordeste 55 Nordeste 0 1018.4 1.3 70
2019-06-04 23:00:00 20.8 40 Nordeste 57 Nordeste 0 1018.3 1.7 69
2019-06-04 22:00:00 20.6 33 Nordeste 57 Nordeste 0 1017.5 1 70
2019-06-04 21:00:00 20.6 34 Norte 57 Nordeste 0 1017.1 0.9 72
2019-06-04 20:00:00 21.5 36 Norte 57 Norte 0 1016.6 0.3 70
2019-06-04 19:00:00 22.2 35 Norte 63 Nordeste 0 1016.5 0 71
2019-06-04 18:00:00 22.8 36 Norte 59 Norte 0 1016.2 -0.2 70
2019-06-04 17:00:00 23.4 42 Norte 62 Norte 0 1016.3 -0.6 66
2019-06-04 16:00:00 23 42 Norte 77 Norte 0 1016.5 -0.6 68
2019-06-04 15:00:00 23.5 50 Norte 71 Norte 0 1016.4 -0.4 68
2019-06-04 14:00:00 24.5 32 Norte 66 Norte 0 1016.9 0.4 66
2019-06-04 13:00:00 23.6 41 Norte 65 Norte 0 1017.1 1.2 69
2019-06-04 12:00:00 23.5 36 Norte 67 Norte 0 1016.8 1.1 65
2019-06-04 11:00:00 23.1 43 Norte 62 Norte 0 1016.5 1.3 62
2019-06-04 10:00:00 23.9 31 Nordeste 55 Nordeste 0 1015.9 1.2 47
2019-06-04 09:00:00 22.3 24 Nordeste 50 Nordeste 0 1015.7 1.5 60
2019-06-04 08:00:00 20.4 28 Nordeste 53 Nordeste 0 1015.2 0.9 76
2019-06-04 07:00:00 19.8 22 Nordeste 47 Norte 0 1014.7 0.2 81
2019-06-04 06:00:00 19.9 28 Nordeste 50 Nordeste 0 1014.2 -0.8 84
2019-06-04 05:00:00 20 20 Nordeste 50 Nordeste 0 1014.3 -1.2 82
2019-06-04 04:00:00 20.1 27 Nordeste 53 Norte 0 1014.5 -1.5 83
2019-06-04 03:00:00 20.3 28 Nordeste 61 Norte 0 1015 -1.3 81
2019-06-04 02:00:00 20.3 32 Norte 59 Norte 0 1015.5 -0.6 83
2019-06-04 01:00:00 20.4 37 Norte 60 Norte 0 1016 0.8 84
2019-06-04 00:00:00 20.6 39 Norte 64 Norte 0 1016.3 1.7 83
2019-06-03 23:00:00 20.6 35 Norte 63 Norte 0 1016.1 1.8 83
2019-06-03 22:00:00 20.7 36 Norte 62 Norte 0 1015.2 1.4 83
2019-06-03 21:00:00 20.9 37 Norte 63 Norte 0 1014.6 1 84
2019-06-03 20:00:00 21.5 37 Norte 73 Norte 0 1014.3 0.4 81
2019-06-03 19:00:00 22.3 45 Norte 70 Norte 0 1013.8 -0.1 78
2019-06-03 18:00:00 23.1 49 Norte 71 Norte 0 1013.6 -0.4 72
2019-06-03 17:00:00 23.4 43 Norte 68 Norte 0 1013.9 -0.5 73
2019-06-03 16:00:00 23.7 40 Norte 67 Norte 0 1013.9 -0.2 71
2019-06-03 15:00:00 23.6 44 Norte 64 Norte 0 1014 0.1 73
2019-06-03 14:00:00 23.9 34 Norte 64 Norte 0 1014.4 0.1 71
2019-06-03 13:00:00 23.6 42 Norte 68 Norte 0 1014.1 0 72
2019-06-03 12:00:00 23.8 33 Nordeste 57 Norte 0 1013.9 0.1 71
2019-06-03 11:00:00 23.4 24 Nordeste 49 Nordeste 0 1014.3 0.9 72
2019-06-03 10:00:00 22.6 22 Nordeste 45 Norte 0 1014.1 1 74
2019-06-03 09:00:00 21.6 17 Nordeste 34 Nordeste 0 1013.8 0.7 73
2019-06-03 08:00:00 19.7 10 Este 25 Nordeste 0 1013.4 0.2 79
2019-06-03 07:00:00 19.5 7 Este 28 Nordeste 0 1013.1 -0.5 84
2019-06-03 06:00:00 20.2 15 Nordeste 35 Nordeste 0 1013.1 -0.8 82
2019-06-03 05:00:00 20 4 Sudeste 32 Norte 0 1013.2 -1.5 81
2019-06-03 04:00:00 20.5 13 Nordeste 37 Nordeste 0 1013.6 -1.2 81
2019-06-03 03:00:00 20.6 13 Nordeste 42 Nordeste 0 1013.9 -0.9 83
2019-06-03 02:00:00 20.7 23 Nordeste 44 Nordeste 0 1014.7 0.5 84
2019-06-03 01:00:00 20.9 23 Nordeste 45 Nordeste 0 1014.8 1.3 83
2019-06-03 00:00:00 21 21 Nordeste 41 Nordeste 0 1014.8 2.1 83
2019-06-02 23:00:00 21.6 19 Nordeste 38 Nordeste 0 1014.2 2.3 77
2019-06-02 22:00:00 21.4 22 Nordeste 43 Nordeste 0 1013.5 2.2 79
2019-06-02 21:00:00 21.2 23 Nordeste 44 Nordeste 0 1012.7 1.5 80
2019-06-02 20:00:00 22.6 23 Nordeste 46 Norte 0 1011.9 0.5 74
2019-06-02 19:00:00 23.8 26 Nordeste 45 Nordeste 0 1011.3 -0.3 69
2019-06-02 18:00:00 23.9 24 Nordeste 56 Norte 0 1011.2 -0.5 68
2019-06-02 17:00:00 24.4 32 Nordeste 59 Norte 0 1011.4 -0.8 65
2019-06-02 16:00:00 24.5 31 Norte 52 Norte 0 1011.6 -1.1 65
2019-06-02 15:00:00 25.5 28 Norte 48 Norte 0 1011.7 -1.3 62
2019-06-02 14:00:00 25.8 26 Norte 41 Norte 0 1012.2 -0.4 61
2019-06-02 13:00:00 25.4 19 Norte 32 Norte 0 1012.7 0.3 61
2019-06-02 12:00:00 24.1 20 Norte 41 Norte 0 1013 1.2 65
2019-06-02 11:00:00 22.8 23 Norte 37 Norte 0 1012.6 1.3 70
2019-06-02 10:00:00 21.8 20 Nordeste 36 Norte 0 1012.4 1.5 74
2019-06-02 09:00:00 21.1 21 Nordeste 39 Nordeste 0 1011.8 0.7 78
2019-06-02 08:00:00 18.9 12 Nordeste 32 Nordeste 0 1011.3 0.2 78
2019-06-02 07:00:00 16.5 10 Este 15 Sudeste 0 1010.9 -0.5 87
2019-06-02 06:00:00 16.4 9 Este 13 Este 0 1011.1 -1 86
2019-06-02 05:00:00 16.4 8 Este 12 Este 0 1011.1 -1.7 85
2019-06-02 04:00:00 17.3 10 Este 12 Sudeste 0 1011.4 -1.9 84
2019-06-02 03:00:00 17.6 6 Este 10 Sudeste 0 1012.1 -1.4 82
2019-06-02 02:00:00 18.5 4 Este 13 Sudeste 0 1012.8 0 79
2019-06-02 01:00:00 20.2 12 Nordeste 25 Norte 0 1013.3 1.5 79
2019-06-02 00:00:00 20.4 15 Norte 32 Norte 0 1013.5 2.2 78
2019-06-01 23:00:00 20.5 24 Nordeste 41 Nordeste 0 1012.8 2.2 76
2019-06-01 22:00:00 20.7 21 Nordeste 44 Norte 0 1011.8 1.5 75
2019-06-01 21:00:00 20.9 21 Norte 42 Norte 0 1011.3 0.5 76
2019-06-01 20:00:00 21.8 26 Norte 53 Nordeste 0 1010.6 -0.6 74
2019-06-01 19:00:00 22.9 28 Norte 49 Norte 0 1010.3 -1.3 69
2019-06-01 18:00:00 24 26 Nordeste 48 Nordeste 0 1010.8 -1.3 64
2019-06-01 17:00:00 24.3 28 Norte 43 Nordeste 0 1011.2 -1.2 63
2019-06-01 16:00:00 24.9 24 Nordeste 42 Norte 0 1011.6 -1 61
2019-06-01 15:00:00 25 21 Norte 38 Norte 0 1012.1 -0.8 59
2019-06-01 14:00:00 24.7 23 Norte 41 Nordeste 0 1012.4 -0.6 61
2019-06-01 13:00:00 24.2 21 Norte 40 Norte 0 1012.6 -0.5 63
2019-06-01 12:00:00 23.5 21 Nordeste 34 Nordeste 0 1012.9 0.5 65
2019-06-01 11:00:00 22.6 20 Norte 38 Norte 0 1013 1.2 66
2019-06-01 10:00:00 22.4 17 Nordeste 37 Este 0 1013.1 1.9 68
2019-06-01 09:00:00 20.6 9 Nordeste 46 Nordeste 0 1012.4 1.4 74
2019-06-01 08:00:00 19.6 22 Nordeste 46 Nordeste 0 1011.8 1 77
2019-06-01 07:00:00 19.2 18 Nordeste 36 Nordeste 0 1011.2 -0.3 79
2019-06-01 06:00:00 19.3 16 Nordeste 30 Nordeste 0 1011 -1.3 77
2019-06-01 05:00:00 19.4 13 Nordeste 31 Nordeste 0 1010.8 -2.1 79
2019-06-01 04:00:00 19.6 22 Nordeste 38 Nordeste 0 1011.5 -1.7 79
2019-06-01 03:00:00 19.8 17 Nordeste 35 Este 0 1012.3 -0.6 75
2019-06-01 02:00:00 19.6 17 Nordeste 36 Nordeste 0 1012.9 0.4 77
2019-06-01 01:00:00 19.6 24 Nordeste 40 Nordeste 0 1013.2 1.2 79
2019-06-01 00:00:00 19.8 22 Nordeste 42 Este 0 1012.9 1.4 78
2019-05-31 23:00:00 20.4 23 Norte 54 Norte 0 1012.5 1.3 73
2019-05-31 22:00:00 20.4 29 Nordeste 49 Nordeste 0 1012 0.7 74
2019-05-31 21:00:00 20.7 30 Norte 58 Nordeste 0 1011.5 -0.2 73
2019-05-31 20:00:00 21.7 29 Nordeste 54 Nordeste 0 1011.2 -1 70
2019-05-31 19:00:00 23.2 27 Nordeste 52 Norte 0 1011.3 -1.6 64
2019-05-31 18:00:00 23.5 30 Norte 57 Norte 0 1011.7 -1.5 63
2019-05-31 17:00:00 23.8 30 Norte 54 Nordeste 0 1012.2 -1.2 62
2019-05-31 16:00:00 24 27 Norte 47 Norte 0 1012.9 -0.4 60
2019-05-31 15:00:00 24.3 27 Nordeste 56 Nordeste 0 1013.2 0.1 59
2019-05-31 14:00:00 23.4 32 Norte 55 Norte 0 1013.4 0.1 62
2019-05-31 13:00:00 23 33 Norte 51 Nordeste 0 1013.3 0 64
2019-05-31 12:00:00 23.3 26 Nordeste 41 Norte 0 1013.1 0 63
2019-05-31 11:00:00 22 23 Norte 38 Norte 0 1013.3 0.5 66
2019-05-31 10:00:00 21.5 17 Nordeste 34 Norte 0 1013.3 0.8 68
2019-05-31 09:00:00 20.2 16 Nordeste 29 Nordeste 0 1013.1 0.9 70
2019-05-31 08:00:00 18.4 14 Este 31 Nordeste 0 1012.8 0.3 73
2019-05-31 07:00:00 18.8 17 Nordeste 34 Norte 0 1012.5 -0.3 75
2019-05-31 06:00:00 18.9 18 Nordeste 44 Nordeste 0 1012.2 -1.2 74
2019-05-31 05:00:00 19 23 Nordeste 42 Nordeste 0 1012.5 -1.6 75
2019-05-31 04:00:00 19.3 18 Nordeste 41 Nordeste 0 1012.8 -1.8 75
2019-05-31 03:00:00 19.4 23 Nordeste 46 Nordeste 0 1013.4 -1.4 74
2019-05-31 02:00:00 19.6 27 Nordeste 46 Nordeste 0 1014.1 -0.6 73
2019-05-31 01:00:00 19.7 22 Nordeste 48 Nordeste 0 1014.6 0.2 73
2019-05-31 00:00:00 19.6 31 Nordeste 55 Nordeste 0 1014.8 0.8 73
2019-05-30 23:00:00 19.9 33 Nordeste 50 Nordeste 0 1014.7 1.3 73
2019-05-30 22:00:00 19.9 30 Nordeste 55 Nordeste 0 1014.4 1 73
2019-05-30 21:00:00 20.3 34 Nordeste 59 Norte 0 1014 0.4 70
2019-05-30 20:00:00 21.4 31 Norte 59 Nordeste 0 1013.4 -0.6 67
2019-05-30 19:00:00 22.2 28 Nordeste 55 Norte 0 1013.4 -0.9 63
2019-05-30 18:00:00 22.4 28 Norte 53 Norte 0 1013.6 -0.9 63
2019-05-30 17:00:00 23.1 29 Norte 54 Norte 0 1014 -0.8 59
2019-05-30 16:00:00 23.3 31 Norte 51 Norte 0 1014.3 -0.7 58
2019-05-30 15:00:00 23.4 28 Norte 50 Norte 0 1014.5 -0.5 57
2019-05-30 14:00:00 23.1 30 Nordeste 54 Norte 0 1014.8 0.1 58
2019-05-30 13:00:00 22.7 31 Norte 51 Nordeste 0 1015 0.3 60
2019-05-30 12:00:00 22.5 29 Norte 49 Nordeste 0 1015 0.4 61
2019-05-30 11:00:00 21.6 26 Norte 48 Norte 0 1014.7 0.3 64
2019-05-30 10:00:00 20.8 19 Nordeste 40 Norte 0 1014.7 0.4 65
2019-05-30 09:00:00 19.7 15 Norte 32 Nordeste 0 1014.6 0.6 68
2019-05-30 08:00:00 17.9 15 Este 30 Nordeste 0 1014.4 0.6 74
2019-05-30 07:00:00 16.7 9 Este 26 Nordeste 0 1014.3 0.2 76
2019-05-30 06:00:00 18.4 18 Nordeste 37 Nordeste 0 1014 -0.6 73
2019-05-30 05:00:00 18.7 21 Nordeste 41 Nordeste 0 1013.8 -1.3 73
2019-05-30 04:00:00 18.8 24 Nordeste 41 Nordeste 0 1014.1 -1.5 73
2019-05-30 03:00:00 18.9 30 Nordeste 45 Nordeste 0 1014.6 -1.1 71
2019-05-30 02:00:00 19.1 26 Nordeste 46 Nordeste 0 1015.1 -0.6 73
2019-05-30 01:00:00 19.1 30 Nordeste 53 Nordeste 0 1015.6 0.6 72
2019-05-30 00:00:00 19.2 30 Nordeste 55 Nordeste 0 1015.7 1.1 72
2019-05-29 23:00:00 19.4 24 Norte 59 Norte 0 1015.7 1.8 72
2019-05-29 22:00:00 19.5 27 Norte 55 Nordeste 0 1015 0.8 72
2019-05-29 21:00:00 19.8 33 Nordeste 57 Norte 0 1014.6 0.6 70
2019-05-29 20:00:00 20.9 31 Norte 55 Norte 0 1013.9 -0.1 66
2019-05-29 19:00:00 21.7 26 Norte 50 Nordeste 0 1014.2 -0.1 65
2019-05-29 18:00:00 22.5 31 Norte 56 Norte 0 1014 -0.8 60
2019-05-29 17:00:00 23 31 Norte 57 Norte 0 1014 -1.3 58
2019-05-29 16:00:00 22.8 34 Norte 54 Nordeste 0 1014.3 -1.5 59
2019-05-29 15:00:00 22.8 31 Norte 57 Norte 0 1014.8 -1 58
2019-05-29 14:00:00 22.5 29 Norte 52 Norte 0 1015.3 -0.5 59
2019-05-29 13:00:00 21.8 30 Norte 49 Norte 0 1015.8 0 60
2019-05-29 12:00:00 22 26 Norte 48 Nordeste 0 1015.8 0.1 60
2019-05-29 11:00:00 21.1 27 Norte 45 Norte 0 1015.8 0.7 63
2019-05-29 10:00:00 20.5 28 Nordeste 45 Nordeste 0 1015.8 1.1 66
2019-05-29 09:00:00 20 19 Nordeste 40 Nordeste 0 1015.7 1.5 69
2019-05-29 08:00:00 18.9 25 Nordeste 44 Nordeste 0 1015.1 0.9 74
2019-05-29 07:00:00 18.5 27 Nordeste 49 Nordeste 0 1014.7 0.3 75
2019-05-29 06:00:00 18.7 25 Nordeste 48 Nordeste 0 1014.2 -0.7 75
2019-05-29 05:00:00 18.8 26 Nordeste 49 Nordeste 0 1014.2 -1.2 72
2019-05-29 04:00:00 18.9 28 Nordeste 53 Nordeste 0 1014.4 -1.3 73
2019-05-29 03:00:00 19.1 29 Nordeste 54 Nordeste 0 1014.9 -0.9 73
2019-05-29 02:00:00 19.1 30 Nordeste 51 Nordeste 0 1015.4 0.1 74
2019-05-29 01:00:00 19.5 32 Nordeste 51 Nordeste 0 1015.7 0.8 73
2019-05-29 00:00:00 19.8 31 Nordeste 53 Nordeste 0 1015.8 1.6 71
2019-05-28 23:00:00 20 31 Nordeste 55 Nordeste 0 1015.3 1.4 72
2019-05-28 22:00:00 20.1 31 Nordeste 57 Nordeste 0 1014.9 0.9 71
2019-05-28 21:00:00 20.4 36 Nordeste 72 Nordeste 0 1014.2 0.1 69
2019-05-28 20:00:00 21.6 32 Nordeste 64 Norte 0 1013.9 0 67
2019-05-28 19:00:00 22.3 32 Norte 61 Norte 0 1014 0 66
2019-05-28 18:00:00 23 29 Norte 52 Norte 0 1014.1 0 60
2019-05-28 17:00:00 23.7 28 Norte 53 Norte 0 1013.9 -0.4 60
2019-05-28 16:00:00 23.7 30 Norte 62 Nordeste 0 1014 -0.6 59
2019-05-28 15:00:00 23.6 31 Norte 59 Nordeste 0 1014.1 -0.8 59
2019-05-28 14:00:00 23.1 32 Norte 59 Nordeste 0 1014.3 -0.5 63
2019-05-28 13:00:00 22.8 33 Nordeste 54 Nordeste 0 1014.6 -0.2 62
2019-05-28 12:00:00 22.6 33 Nordeste 58 Nordeste 0 1014.9 0.5 64
2019-05-28 11:00:00 21.9 31 Nordeste 55 Nordeste 0 1014.8 1 64
2019-05-28 10:00:00 21.3 32 Nordeste 45 Nordeste 0 1014.8 1.3 70
2019-05-28 09:00:00 20.2 20 Nordeste 50 Norte 0 1014.4 1.5 75
2019-05-28 08:00:00 19.7 21 Nordeste 49 Nordeste 0 1013.8 1.2 77
2019-05-28 07:00:00 19.6 21 Nordeste 53 Norte 0 1013.5 0.7 74
2019-05-28 06:00:00 19.6 24 Norte 55 Norte 0 1012.9 -0.1 79
2019-05-28 05:00:00 19.4 22 Nordeste 48 Norte 0 1012.6 -0.9 79
2019-05-28 04:00:00 19.5 23 Norte 55 Norte 0 1012.8 -1 79
2019-05-28 03:00:00 19.6 24 Norte 49 Norte 0 1013 -0.7 77
2019-05-28 02:00:00 19.5 27 Norte 55 Norte 0 1013.5 0 78
2019-05-28 01:00:00 19.6 30 Norte 50 Norte 0 1013.8 0.8 78
2019-05-28 00:00:00 19.8 27 Nordeste 51 Norte 0 1013.7 1.1 77
2019-05-27 23:00:00 20 30 Nordeste 59 Norte 0 1013.5 1.4 77
2019-05-27 22:00:00 20.3 28 Nordeste 62 Nordeste 0 1013 1.2 76
2019-05-27 21:00:00 20.4 35 Norte 63 Norte 0 1012.6 0.5 73
2019-05-27 20:00:00 20.9 35 Norte 64 Nordeste 0 1012.1 -0.3 75
2019-05-27 19:00:00 22.1 37 Norte 69 Nordeste 0 1011.8 -1.5 70
2019-05-27 18:00:00 22.3 36 Norte 65 Nordeste 0 1012.1 -0.9 71
2019-05-27 17:00:00 22.7 33 Norte 61 Nordeste 0 1012.4 -0.7 69
2019-05-27 16:00:00 23.4 29 Norte 58 Norte 0 1013.3 0.2 66
2019-05-27 15:00:00 23.1 36 Norte 62 Norte 0 1013 -0.4 67
2019-05-27 14:00:00 23.5 36 Nordeste 58 Nordeste 0 1013.1 -0.2 65
2019-05-27 13:00:00 23.4 31 Nordeste 69 Nordeste 0 1013.1 -0.2 66
2019-05-27 12:00:00 22.5 29 Nordeste 54 Norte 0 1013.4 0.2 68
2019-05-27 11:00:00 21.8 29 Nordeste 53 Norte 0 1013.3 0.3 70
2019-05-27 10:00:00 20.9 31 Norte 54 Norte 0 1013.3 0.5 73
2019-05-27 09:00:00 20 27 Nordeste 43 Nordeste 0 1013.2 0.7 77
2019-05-27 08:00:00 17 12 Sudeste 33 Nordeste 0 1013 0.6 82
2019-05-27 07:00:00 17.3 14 Este 31 Norte 0 1012.8 -0.2 80
2019-05-27 06:00:00 18.9 17 Nordeste 41 Nordeste 0 1012.5 -0.7 79
2019-05-27 05:00:00 19.1 24 Nordeste 51 Nordeste 0 1012.4 -1.2 78
2019-05-27 04:00:00 19.2 27 Nordeste 51 Nordeste 0 1013 -1.4 75
2019-05-27 03:00:00 19.3 28 Norte 56 Norte 0 1013.2 -1.1 78
2019-05-27 02:00:00 19.6 36 Norte 57 Nordeste 0 1013.6 -0.6 76
2019-05-27 01:00:00 19.7 29 Norte 60 Norte 0 1014.4 0.5 78
2019-05-27 00:00:00 19.7 31 Norte 54 Norte 0 1014.3 0.8 77
2019-05-26 23:00:00 19.9 26 Nordeste 51 Norte 0 1014.2 1 77
2019-05-26 22:00:00 19.9 30 Nordeste 56 Nordeste 0 1013.9 0.9 78
2019-05-26 21:00:00 20.2 35 Nordeste 54 Nordeste 0 1013.5 0.3 77
2019-05-26 20:00:00 21.3 29 Nordeste 53 Nordeste 0 1013.2 -0.1 71
2019-05-26 19:00:00 22.3 32 Norte 57 Nordeste 0 1013 -0.7 66
2019-05-26 18:00:00 23 33 Nordeste 63 Nordeste 0 1013.2 -0.5 63
2019-05-26 17:00:00 23.3 33 Nordeste 58 Nordeste 0 1013.3 -1 60
2019-05-26 16:00:00 23.6 30 Norte 62 Norte 0 1013.7 -1.3 59
2019-05-26 15:00:00 23.2 33 Nordeste 59 Nordeste 0 1013.7 -1.5 61
2019-05-26 14:00:00 22.7 32 Norte 58 Norte 0 1014.3 -0.6 62
2019-05-26 13:00:00 23.6 25 Norte 50 Nordeste 0 1015 0.3 59
2019-05-26 12:00:00 22.6 27 Nordeste 53 Nordeste 0 1015.2 1.3 61
2019-05-26 11:00:00 21.9 25 Nordeste 60 Nordeste 0 1014.9 1 64
2019-05-26 10:00:00 20.8 19 Norte 62 Norte 0 1014.7 0.7 65
2019-05-26 09:00:00 20 32 Nordeste 64 Nordeste 0 1013.9 0.3 69
2019-05-26 08:00:00 19.1 26 Norte 56 Nordeste 0 1013.9 0.7 74
2019-05-26 07:00:00 19.2 30 Nordeste 56 Nordeste 0 1014 0.2 67
2019-05-26 06:00:00 19.5 29 Nordeste 62 Nordeste 0 1013.6 -0.6 65
2019-05-26 05:00:00 19.7 40 Nordeste 63 Nordeste 0 1013.2 -1.3 62
2019-05-26 04:00:00 19.4 25 Nordeste 69 Nordeste 0 1013.8 -1.1 65
2019-05-26 03:00:00 19.4 23 Nordeste 66 Este 0 1014.2 -1.1 63
2019-05-26 02:00:00 19.6 24 Este 70 Este 0 1014.5 -1.1 65
2019-05-26 01:00:00 19.5 33 Este 77 Este 0 1014.9 -0.2 63
2019-05-26 00:00:00 19.8 34 Nordeste 64 Este 0 1015.3 0.6 64